createdAt,value
2023-02-19T00:00:31.231Z,13.70
2023-02-19T00:01:03.703Z,14.20
2023-02-19T00:01:36.172Z,11.20
2023-02-19T00:02:08.613Z,11.00
2023-02-19T00:02:41.079Z,14.10
2023-02-19T00:03:13.562Z,14.30
2023-02-19T00:03:46.048Z,13.40
2023-02-19T00:04:18.506Z,12.70
2023-02-19T00:04:51.025Z,14.10
2023-02-19T00:05:23.468Z,13.70
2023-02-19T00:05:55.927Z,13.30
2023-02-19T00:06:28.417Z,14.30
2023-02-19T00:07:00.874Z,12.90
2023-02-19T00:07:33.335Z,11.60
2023-02-19T00:08:05.788Z,13.00
2023-02-19T00:08:38.287Z,12.90
2023-02-19T00:09:10.861Z,11.50
2023-02-19T00:09:43.346Z,13.20
2023-02-19T00:10:15.801Z,14.50
2023-02-19T00:10:48.265Z,12.10
2023-02-19T00:11:20.746Z,12.80
2023-02-19T00:11:53.335Z,11.10
2023-02-19T00:12:25.797Z,12.30
2023-02-19T00:12:58.261Z,12.50
2023-02-19T00:13:30.693Z,13.00
2023-02-19T00:14:03.234Z,15.90
2023-02-19T00:14:35.688Z,13.50
2023-02-19T00:15:08.153Z,15.30
2023-02-19T00:15:40.739Z,17.10
2023-02-19T00:16:13.148Z,16.10
2023-02-19T00:16:45.584Z,13.50
2023-02-19T00:17:18.076Z,15.40
2023-02-19T00:17:50.541Z,16.10
2023-02-19T00:18:23.011Z,15.60
2023-02-19T00:18:55.532Z,16.30
2023-02-19T00:19:27.997Z,15.10
2023-02-19T00:20:00.584Z,16.00
2023-02-19T00:20:33.063Z,17.40
2023-02-19T00:21:05.539Z,13.30
2023-02-19T00:21:38.011Z,14.80
2023-02-19T00:22:10.554Z,15.60
2023-02-19T00:22:43.032Z,13.30
2023-02-19T00:23:15.487Z,15.50
2023-02-19T00:23:47.946Z,14.70
2023-02-19T00:24:20.406Z,13.80
2023-02-19T00:24:52.905Z,17.40
2023-02-19T00:25:25.341Z,18.90
2023-02-19T00:26:03.240Z,16.70
2023-02-19T00:26:30.269Z,15.60
2023-02-19T00:27:02.760Z,15.20
2023-02-19T00:27:35.242Z,16.40
2023-02-19T00:28:07.711Z,20.00
2023-02-19T00:28:40.493Z,17.40
2023-02-19T00:29:12.952Z,16.60
2023-02-19T00:29:45.392Z,16.00
2023-02-19T00:30:17.890Z,18.10
2023-02-19T00:30:50.367Z,18.70
2023-02-19T00:31:22.992Z,18.60
2023-02-19T00:31:55.543Z,21.80
2023-02-19T00:32:27.830Z,25.00
2023-02-19T00:33:00.277Z,31.00
2023-02-19T00:33:32.761Z,27.00
2023-02-19T00:34:05.297Z,24.90
2023-02-19T00:34:37.780Z,26.70
2023-02-19T00:35:10.249Z,26.10
2023-02-19T00:35:42.697Z,29.60
2023-02-19T00:36:15.182Z,31.70
2023-02-19T00:36:47.661Z,30.10
2023-02-19T00:37:20.133Z,30.60
2023-02-19T00:37:52.604Z,30.90
2023-02-19T00:38:25.082Z,30.80
2023-02-19T00:38:57.550Z,30.20
2023-02-19T00:39:29.969Z,31.20
2023-02-19T00:40:02.472Z,31.90
2023-02-19T00:40:34.970Z,34.30
2023-02-19T00:41:07.695Z,33.00
2023-02-19T00:41:39.937Z,33.30
2023-02-19T00:42:12.434Z,42.30
2023-02-19T00:42:44.880Z,41.10
2023-02-19T00:43:17.415Z,35.80
2023-02-19T00:43:49.881Z,31.70
2023-02-19T00:44:22.347Z,36.00
2023-02-19T00:44:54.809Z,36.40
2023-02-19T00:45:27.264Z,33.10
2023-02-19T00:45:59.826Z,40.20
2023-02-19T00:46:32.361Z,42.00
2023-02-19T00:47:04.788Z,37.30
2023-02-19T00:47:37.235Z,33.40
2023-02-19T00:48:09.716Z,34.60
2023-02-19T00:48:42.403Z,35.30
2023-02-19T00:49:14.888Z,36.80
2023-02-19T00:49:47.366Z,36.70
2023-02-19T00:50:19.824Z,36.50
2023-02-19T00:50:52.265Z,39.20
2023-02-19T00:51:24.805Z,42.10
2023-02-19T00:51:57.297Z,40.10
2023-02-19T00:52:29.777Z,35.80
2023-02-19T00:53:02.253Z,34.10
2023-02-19T00:53:34.724Z,43.10
2023-02-19T00:54:07.183Z,43.50
2023-02-19T00:54:39.663Z,36.10
2023-02-19T00:55:12.142Z,39.00
2023-02-19T00:55:44.634Z,44.80
2023-02-19T00:56:17.114Z,38.30
2023-02-19T00:56:49.615Z,36.90
2023-02-19T00:57:22.160Z,43.50
2023-02-19T00:57:54.652Z,46.40
2023-02-19T00:58:27.205Z,49.00
2023-02-19T00:58:59.722Z,45.30
2023-02-19T00:59:32.178Z,39.70
2023-02-19T01:00:04.649Z,44.50
2023-02-19T01:00:37.110Z,44.90
2023-02-19T01:01:09.799Z,43.30
2023-02-19T01:01:42.017Z,47.80
2023-02-19T01:02:14.454Z,43.20
2023-02-19T01:02:46.961Z,41.10
2023-02-19T01:03:19.464Z,45.10
2023-02-19T01:03:51.964Z,49.30
2023-02-19T01:04:24.445Z,43.20
2023-02-19T01:04:56.959Z,41.80
2023-02-19T01:05:29.332Z,58.20
2023-02-19T01:06:01.832Z,59.70
2023-02-19T01:06:34.309Z,50.80
2023-02-19T01:07:07.054Z,50.90
2023-02-19T01:07:39.258Z,51.40
2023-02-19T01:08:11.761Z,49.50
2023-02-19T01:08:44.306Z,54.20
2023-02-19T01:09:16.807Z,61.10
2023-02-19T01:09:49.325Z,57.80
2023-02-19T01:10:21.773Z,52.50
2023-02-19T01:10:54.225Z,44.20
2023-02-19T01:11:26.660Z,48.80
2023-02-19T01:11:59.119Z,54.40
2023-02-19T01:12:31.538Z,46.00
2023-02-19T01:13:04.028Z,44.70
2023-02-19T01:13:36.469Z,48.20
2023-02-19T01:14:08.908Z,49.40
2023-02-19T01:14:41.441Z,49.90
2023-02-19T01:15:13.934Z,52.20
2023-02-19T01:15:46.465Z,50.30
2023-02-19T01:16:18.940Z,48.70
2023-02-19T01:16:51.434Z,46.30
2023-02-19T01:17:23.920Z,49.80
2023-02-19T01:17:56.431Z,49.70
2023-02-19T01:18:28.911Z,49.80
2023-02-19T01:19:01.405Z,56.80
2023-02-19T01:19:33.872Z,50.40
2023-02-19T01:20:06.330Z,47.30
2023-02-19T01:20:38.784Z,44.10
2023-02-19T01:21:11.508Z,44.70
2023-02-19T01:21:43.679Z,52.70
2023-02-19T01:22:16.138Z,50.80
2023-02-19T01:22:48.601Z,46.50
2023-02-19T01:23:21.108Z,47.50
2023-02-19T01:23:53.614Z,51.50
2023-02-19T01:24:26.073Z,43.20
2023-02-19T01:24:58.577Z,46.20
2023-02-19T01:25:31.005Z,42.90
2023-02-19T01:26:03.495Z,45.30
2023-02-19T01:26:35.988Z,50.00
2023-02-19T01:27:08.502Z,56.40
2023-02-19T01:27:40.953Z,61.60
2023-02-19T01:28:13.426Z,52.30
2023-02-19T01:28:45.887Z,43.30
2023-02-19T01:29:18.337Z,41.20
2023-02-19T01:29:50.832Z,38.80
2023-02-19T01:30:23.367Z,38.10
2023-02-19T01:30:55.744Z,45.50
2023-02-19T01:31:28.266Z,40.90
2023-02-19T01:32:00.822Z,37.90
2023-02-19T01:32:33.136Z,39.00
2023-02-19T01:33:05.663Z,41.30
2023-02-19T01:33:38.139Z,46.60
2023-02-19T01:34:10.603Z,43.40
2023-02-19T01:34:43.144Z,45.50
2023-02-19T01:35:15.642Z,49.50
2023-02-19T01:35:48.141Z,52.00
2023-02-19T01:36:20.652Z,50.90
2023-02-19T01:36:53.198Z,41.80
2023-02-19T01:37:25.692Z,40.90
2023-02-19T01:37:58.159Z,39.90
2023-02-19T01:38:30.612Z,36.30
2023-02-19T01:39:03.081Z,38.20
2023-02-19T01:39:35.579Z,42.70
2023-02-19T01:40:08.090Z,39.90
2023-02-19T01:40:40.626Z,38.40
2023-02-19T01:41:13.084Z,44.10
2023-02-19T01:41:45.622Z,44.10
2023-02-19T01:42:18.900Z,40.00
2023-02-19T01:42:51.373Z,38.20
2023-02-19T01:43:23.895Z,41.40
2023-02-19T01:43:56.371Z,39.80
2023-02-19T01:44:28.816Z,38.40
2023-02-19T01:45:01.298Z,37.30
2023-02-19T01:45:33.876Z,39.20
2023-02-19T01:46:06.432Z,44.50
2023-02-19T01:46:38.989Z,46.80
2023-02-19T01:47:11.404Z,41.70
2023-02-19T01:47:43.873Z,37.70
2023-02-19T01:48:16.401Z,35.90
2023-02-19T01:48:48.884Z,34.10
2023-02-19T01:49:21.378Z,38.20
2023-02-19T01:49:53.873Z,46.60
2023-02-19T01:50:27.357Z,40.80
2023-02-19T01:50:59.809Z,34.40
2023-02-19T01:51:32.334Z,36.60
2023-02-19T01:52:04.819Z,34.30
2023-02-19T01:52:37.333Z,37.30
2023-02-19T01:53:09.788Z,37.80
2023-02-19T01:53:42.273Z,38.10
2023-02-19T01:54:14.747Z,34.90
2023-02-19T01:54:47.200Z,32.60
2023-02-19T01:55:19.697Z,33.10
2023-02-19T01:55:52.215Z,33.80
2023-02-19T01:56:24.689Z,34.60
2023-02-19T01:56:57.200Z,35.80
2023-02-19T01:57:29.627Z,39.50
2023-02-19T01:58:02.069Z,37.40
2023-02-19T01:58:34.550Z,37.70
2023-02-19T01:59:07.053Z,39.60
2023-02-19T01:59:39.610Z,41.70
2023-02-19T02:00:12.070Z,36.70
2023-02-19T02:00:44.620Z,37.10
2023-02-19T02:01:17.034Z,36.00
2023-02-19T02:01:49.589Z,36.10
2023-02-19T02:02:22.031Z,41.10
2023-02-19T02:02:54.531Z,37.50
2023-02-19T02:03:26.998Z,36.60
2023-02-19T02:03:59.447Z,39.20
2023-02-19T02:04:31.904Z,38.00
2023-02-19T02:05:04.410Z,40.40
2023-02-19T02:05:36.871Z,39.00
2023-02-19T02:06:09.402Z,39.10
2023-02-19T02:06:41.841Z,44.90
2023-02-19T02:07:14.321Z,42.30
2023-02-19T02:07:46.790Z,39.40
2023-02-19T02:08:19.304Z,38.90
2023-02-19T02:08:51.929Z,39.60
2023-02-19T02:09:24.410Z,42.80
2023-02-19T02:09:56.879Z,41.40
2023-02-19T02:10:29.393Z,39.30
2023-02-19T02:11:01.841Z,35.60
2023-02-19T02:11:34.333Z,36.40
2023-02-19T02:12:06.794Z,39.20
2023-02-19T02:12:39.246Z,42.30
2023-02-19T02:13:11.724Z,37.30
2023-02-19T02:13:44.196Z,32.70
2023-02-19T02:14:16.658Z,34.30
2023-02-19T02:14:49.156Z,38.00
2023-02-19T02:15:21.606Z,33.00
2023-02-19T02:15:54.112Z,29.20
2023-02-19T02:16:26.621Z,42.10
2023-02-19T02:16:59.063Z,39.60
2023-02-19T02:17:31.568Z,40.10
2023-02-19T02:18:04.033Z,39.00
2023-02-19T02:18:36.508Z,34.90
2023-02-19T02:19:08.978Z,37.80
2023-02-19T02:19:41.502Z,42.90
2023-02-19T02:20:14.007Z,36.70
2023-02-19T02:20:46.653Z,31.60
2023-02-19T02:21:19.121Z,39.40
2023-02-19T02:21:51.583Z,42.00
2023-02-19T02:22:24.147Z,38.50
2023-02-19T02:22:56.607Z,36.60
2023-02-19T02:23:29.060Z,39.40
2023-02-19T02:24:01.585Z,33.90
2023-02-19T02:24:34.045Z,29.00
2023-02-19T02:25:06.537Z,31.60
2023-02-19T02:25:39.020Z,33.20
2023-02-19T02:26:11.484Z,31.60
2023-02-19T02:26:43.943Z,36.60
2023-02-19T02:27:16.404Z,40.70
2023-02-19T02:27:48.946Z,36.80
2023-02-19T02:28:21.426Z,31.80
2023-02-19T02:28:53.887Z,35.20
2023-02-19T02:29:26.334Z,35.50
2023-02-19T02:29:58.855Z,36.10
2023-02-19T02:30:31.333Z,40.70
2023-02-19T02:31:03.837Z,36.70
2023-02-19T02:31:36.297Z,35.80
2023-02-19T02:32:08.770Z,38.40
2023-02-19T02:32:41.222Z,36.50
2023-02-19T02:33:13.733Z,37.00
2023-02-19T02:33:46.204Z,30.50
2023-02-19T02:34:18.775Z,36.60
2023-02-19T02:34:51.212Z,35.20
2023-02-19T02:35:23.708Z,34.60
2023-02-19T02:35:56.214Z,38.10
2023-02-19T02:36:28.708Z,37.40
2023-02-19T02:37:01.178Z,33.90
2023-02-19T02:37:33.652Z,34.00
2023-02-19T02:38:06.140Z,29.90
2023-02-19T02:38:38.588Z,27.90
2023-02-19T02:39:11.086Z,35.60
2023-02-19T02:39:43.550Z,43.20
2023-02-19T02:40:16.041Z,41.70
2023-02-19T02:40:48.468Z,33.90
2023-02-19T02:41:20.982Z,32.40
2023-02-19T02:41:53.480Z,31.70
2023-02-19T02:42:25.987Z,30.90
2023-02-19T02:42:58.471Z,31.00
2023-02-19T02:43:30.926Z,31.80
2023-02-19T02:44:03.392Z,34.60
2023-02-19T02:44:35.901Z,38.70
2023-02-19T02:45:08.350Z,38.40
2023-02-19T02:45:40.823Z,28.50
2023-02-19T02:46:13.281Z,30.00
2023-02-19T02:46:45.729Z,34.70
2023-02-19T02:47:18.178Z,32.20
2023-02-19T02:47:50.639Z,29.00
2023-02-19T02:48:23.114Z,31.20
2023-02-19T02:48:55.637Z,28.40
2023-02-19T02:49:28.110Z,30.50
2023-02-19T02:50:00.577Z,39.90
2023-02-19T02:50:33.055Z,38.30
2023-02-19T02:51:05.527Z,31.60
2023-02-19T02:51:37.972Z,31.60
2023-02-19T02:52:10.421Z,34.20
2023-02-19T02:52:42.990Z,36.30
2023-02-19T02:53:15.481Z,29.40
2023-02-19T02:53:47.945Z,24.80
2023-02-19T02:54:20.436Z,25.20
2023-02-19T02:54:52.913Z,30.00
2023-02-19T02:55:25.400Z,34.10
2023-02-19T02:55:57.856Z,32.70
2023-02-19T02:56:30.321Z,30.50
2023-02-19T02:57:02.827Z,31.20
2023-02-19T02:57:35.323Z,32.70
2023-02-19T02:58:07.805Z,29.70
2023-02-19T02:58:40.301Z,29.00
2023-02-19T02:59:12.789Z,27.20
2023-02-19T02:59:45.260Z,29.60
2023-02-19T03:00:17.757Z,33.10
2023-02-19T03:00:50.261Z,33.70
2023-02-19T03:01:22.790Z,30.80
2023-02-19T03:01:55.228Z,36.70
2023-02-19T03:02:27.709Z,32.70
2023-02-19T03:03:00.174Z,28.70
2023-02-19T03:03:32.659Z,31.00
2023-02-19T03:04:05.185Z,35.90
2023-02-19T03:04:37.702Z,38.20
2023-02-19T03:05:10.176Z,32.60
2023-02-19T03:05:42.632Z,28.60
2023-02-19T03:06:15.099Z,28.90
2023-02-19T03:06:47.716Z,36.30
2023-02-19T03:07:20.209Z,33.30
2023-02-19T03:07:52.667Z,27.30
2023-02-19T03:08:25.381Z,28.40
2023-02-19T03:08:57.859Z,29.20
2023-02-19T03:09:30.391Z,26.00
2023-02-19T03:10:02.819Z,23.90
2023-02-19T03:10:35.296Z,27.10
2023-02-19T03:11:07.956Z,28.50
2023-02-19T03:11:40.210Z,27.50
2023-02-19T03:12:12.658Z,26.40
2023-02-19T03:12:45.135Z,26.20
2023-02-19T03:13:17.681Z,29.80
2023-02-19T03:13:50.167Z,28.80
2023-02-19T03:14:22.603Z,25.10
2023-02-19T03:14:55.098Z,25.50
2023-02-19T03:15:27.574Z,27.90
2023-02-19T03:16:00.046Z,29.60
2023-02-19T03:16:32.542Z,23.10
2023-02-19T03:17:04.993Z,27.00
2023-02-19T03:17:37.535Z,29.90
2023-02-19T03:18:10.016Z,24.10
2023-02-19T03:18:42.492Z,21.10
2023-02-19T03:19:15.152Z,20.60
2023-02-19T03:19:47.649Z,23.50
2023-02-19T03:20:20.098Z,22.70
2023-02-19T03:20:52.593Z,19.40
2023-02-19T03:21:25.089Z,20.30
2023-02-19T03:21:57.606Z,21.00
2023-02-19T03:22:30.100Z,22.10
2023-02-19T03:23:02.579Z,25.20
2023-02-19T03:23:35.048Z,25.00
2023-02-19T03:24:07.550Z,23.90
2023-02-19T03:24:39.998Z,21.70
2023-02-19T03:25:12.521Z,23.60
2023-02-19T03:25:45.017Z,22.70
2023-02-19T03:26:17.534Z,24.40
2023-02-19T03:26:49.971Z,24.40
2023-02-19T03:27:22.501Z,24.50
2023-02-19T03:27:55.021Z,20.20
2023-02-19T03:28:27.515Z,23.30
2023-02-19T03:29:00.000Z,20.90
2023-02-19T03:29:32.563Z,21.80
2023-02-19T03:30:05.114Z,26.90
2023-02-19T03:30:37.892Z,24.70
2023-02-19T03:31:10.579Z,23.30
2023-02-19T03:31:42.878Z,21.20
2023-02-19T03:32:15.346Z,20.40
2023-02-19T03:32:47.773Z,27.00
2023-02-19T03:33:20.272Z,27.80
2023-02-19T03:33:52.755Z,28.70
2023-02-19T03:34:26.191Z,26.40
2023-02-19T03:34:57.689Z,28.50
2023-02-19T03:35:30.166Z,27.80
2023-02-19T03:36:02.672Z,26.10
2023-02-19T03:36:35.163Z,21.70
2023-02-19T03:37:07.634Z,21.30
2023-02-19T03:37:40.092Z,22.00
2023-02-19T03:38:12.596Z,21.10
2023-02-19T03:38:45.168Z,24.90
2023-02-19T03:39:17.668Z,30.70
2023-02-19T03:39:50.111Z,33.80
2023-02-19T03:40:22.577Z,30.80
2023-02-19T03:40:55.064Z,30.40
2023-02-19T03:41:27.553Z,23.20
2023-02-19T03:42:00.029Z,20.60
2023-02-19T03:42:32.489Z,20.90
2023-02-19T03:43:05.060Z,27.50
2023-02-19T03:43:37.513Z,28.30
2023-02-19T03:44:09.994Z,30.00
2023-02-19T03:44:42.528Z,28.30
2023-02-19T03:45:14.983Z,22.60
2023-02-19T03:45:47.532Z,20.80
2023-02-19T03:46:19.971Z,24.40
2023-02-19T03:46:52.448Z,25.30
2023-02-19T03:47:24.961Z,23.40
2023-02-19T03:47:57.465Z,27.20
2023-02-19T03:48:29.928Z,28.30
2023-02-19T03:49:02.404Z,23.20
2023-02-19T03:49:34.901Z,24.30
2023-02-19T03:50:07.466Z,24.20
2023-02-19T03:50:39.956Z,22.20
2023-02-19T03:51:12.645Z,24.50
2023-02-19T03:51:44.882Z,28.70
2023-02-19T03:52:17.373Z,32.70
2023-02-19T03:52:49.832Z,25.60
2023-02-19T03:53:22.348Z,17.90
2023-02-19T03:53:54.845Z,23.20
2023-02-19T03:54:27.322Z,26.90
2023-02-19T03:54:59.812Z,26.50
2023-02-19T03:55:32.348Z,30.20
2023-02-19T03:56:04.850Z,28.50
2023-02-19T03:56:37.327Z,27.80
2023-02-19T03:57:09.805Z,26.90
2023-02-19T03:57:42.286Z,29.50
2023-02-19T03:58:14.790Z,29.70
2023-02-19T03:58:47.268Z,21.50
2023-02-19T03:59:19.824Z,21.70
2023-02-19T03:59:52.267Z,22.60
2023-02-19T04:00:24.787Z,23.60
2023-02-19T04:00:57.284Z,22.60
2023-02-19T04:01:29.760Z,22.70
2023-02-19T04:02:02.307Z,26.80
2023-02-19T04:02:34.772Z,26.80
2023-02-19T04:03:07.238Z,20.80
2023-02-19T04:03:39.731Z,21.00
2023-02-19T04:04:12.235Z,20.60
2023-02-19T04:04:44.731Z,21.10
2023-02-19T04:05:17.258Z,21.80
2023-02-19T04:05:49.729Z,22.10
2023-02-19T04:06:22.211Z,23.00
2023-02-19T04:06:54.701Z,22.80
2023-02-19T04:07:27.173Z,22.70
2023-02-19T04:07:59.639Z,22.90
2023-02-19T04:08:32.105Z,25.60
2023-02-19T04:09:04.612Z,26.30
2023-02-19T04:09:37.066Z,26.70
2023-02-19T04:10:09.585Z,25.50
2023-02-19T04:10:42.077Z,22.30
2023-02-19T04:11:14.603Z,19.30
2023-02-19T04:11:47.078Z,19.10
2023-02-19T04:12:19.546Z,24.20
2023-02-19T04:12:52.029Z,25.10
2023-02-19T04:13:24.510Z,24.30
2023-02-19T04:13:56.996Z,24.20
2023-02-19T04:14:29.474Z,27.60
2023-02-19T04:15:01.954Z,27.50
2023-02-19T04:15:34.477Z,21.60
2023-02-19T04:16:06.961Z,22.90
2023-02-19T04:16:39.419Z,22.40
2023-02-19T04:17:11.954Z,20.30
2023-02-19T04:17:44.417Z,21.30
2023-02-19T04:18:16.892Z,20.00
2023-02-19T04:18:49.365Z,26.10
2023-02-19T04:19:21.900Z,24.50
2023-02-19T04:19:54.394Z,23.20
2023-02-19T04:20:26.886Z,22.70
2023-02-19T04:20:59.341Z,20.90
2023-02-19T04:21:31.802Z,16.70
2023-02-19T04:22:04.274Z,16.80
2023-02-19T04:22:36.793Z,21.90
2023-02-19T04:23:09.303Z,24.50
2023-02-19T04:23:41.914Z,26.50
2023-02-19T04:24:14.367Z,28.80
2023-02-19T04:24:46.843Z,23.70
2023-02-19T04:25:19.346Z,20.90
2023-02-19T04:25:51.877Z,23.30
2023-02-19T04:26:24.387Z,20.50
2023-02-19T04:26:56.861Z,17.50
2023-02-19T04:27:29.355Z,20.10
2023-02-19T04:28:01.807Z,22.70
2023-02-19T04:28:34.271Z,27.70
2023-02-19T04:29:06.747Z,25.40
2023-02-19T04:29:39.434Z,18.40
2023-02-19T04:30:11.684Z,21.20
2023-02-19T04:30:44.203Z,20.80
2023-02-19T04:31:16.704Z,21.40
2023-02-19T04:31:49.082Z,21.80
2023-02-19T04:32:21.565Z,23.70
2023-02-19T04:32:54.072Z,23.30
2023-02-19T04:33:26.536Z,18.40
2023-02-19T04:33:59.053Z,18.40
2023-02-19T04:34:31.512Z,20.10
2023-02-19T04:35:04.043Z,19.00
2023-02-19T04:35:36.517Z,19.10
2023-02-19T04:36:09.003Z,21.20
2023-02-19T04:36:41.545Z,22.00
2023-02-19T04:37:14.022Z,20.10
2023-02-19T04:37:46.518Z,21.10
2023-02-19T04:38:18.966Z,21.30
2023-02-19T04:38:51.448Z,22.40
2023-02-19T04:39:23.939Z,22.80
2023-02-19T04:39:56.431Z,21.00
2023-02-19T04:40:28.943Z,21.70
2023-02-19T04:41:01.425Z,23.90
2023-02-19T04:41:33.888Z,20.20
2023-02-19T04:42:06.332Z,25.40
2023-02-19T04:42:38.788Z,24.00
2023-02-19T04:43:11.298Z,20.50
2023-02-19T04:43:43.784Z,24.50
2023-02-19T04:44:16.269Z,26.40
2023-02-19T04:44:48.722Z,23.00
2023-02-19T04:45:21.201Z,19.80
2023-02-19T04:45:53.650Z,22.00
2023-02-19T04:46:26.181Z,19.00
2023-02-19T04:46:58.608Z,20.10
2023-02-19T04:47:31.039Z,24.00
2023-02-19T04:48:03.521Z,21.00
2023-02-19T04:48:35.976Z,18.00
2023-02-19T04:49:08.458Z,20.00
2023-02-19T04:49:40.949Z,18.20
2023-02-19T04:50:13.394Z,21.90
2023-02-19T04:50:45.942Z,24.00
2023-02-19T04:51:18.414Z,20.30
2023-02-19T04:51:50.952Z,15.10
2023-02-19T04:52:23.411Z,24.40
2023-02-19T04:52:55.862Z,28.50
2023-02-19T04:53:28.421Z,22.80
2023-02-19T04:54:00.915Z,16.90
2023-02-19T04:54:33.408Z,20.00
2023-02-19T04:55:05.905Z,23.80
2023-02-19T04:55:38.384Z,21.80
2023-02-19T04:56:10.868Z,24.30
2023-02-19T04:56:43.364Z,20.00
2023-02-19T04:57:15.832Z,21.40
2023-02-19T04:57:48.312Z,17.00
2023-02-19T04:58:20.806Z,15.60
2023-02-19T04:58:53.271Z,17.70
2023-02-19T04:59:25.726Z,16.90
2023-02-19T04:59:58.280Z,17.50
2023-02-19T05:00:30.746Z,21.00
2023-02-19T05:01:03.268Z,19.00
2023-02-19T05:01:35.766Z,17.20
2023-02-19T05:02:08.206Z,20.10
2023-02-19T05:02:40.661Z,22.40
2023-02-19T05:03:13.205Z,18.70
2023-02-19T05:03:45.737Z,17.70
2023-02-19T05:04:18.247Z,19.40
2023-02-19T05:04:50.650Z,18.00
2023-02-19T05:05:23.216Z,19.40
2023-02-19T05:05:55.733Z,23.90
2023-02-19T05:06:28.198Z,18.50
2023-02-19T05:07:00.641Z,15.90
2023-02-19T05:07:33.069Z,15.20
2023-02-19T05:08:05.528Z,15.00
2023-02-19T05:08:37.999Z,18.30
2023-02-19T05:09:10.564Z,20.80
2023-02-19T05:09:43.011Z,17.50
2023-02-19T05:10:15.471Z,17.00
2023-02-19T05:10:48.003Z,15.10
2023-02-19T05:11:20.420Z,17.60
2023-02-19T05:11:52.906Z,18.10
2023-02-19T05:12:25.369Z,18.20
2023-02-19T05:12:58.075Z,22.00
2023-02-19T05:13:30.327Z,18.20
2023-02-19T05:14:02.783Z,18.60
2023-02-19T05:14:35.241Z,16.80
2023-02-19T05:15:15.243Z,13.90
2023-02-19T05:15:48.288Z,15.10
2023-02-19T05:16:20.700Z,12.00
2023-02-19T05:16:53.155Z,15.30
2023-02-19T05:17:26.239Z,15.80
2023-02-19T05:17:58.724Z,15.90
2023-02-19T05:18:31.787Z,16.80
2023-02-19T05:19:04.227Z,14.30
2023-02-19T05:19:36.671Z,16.60
2023-02-19T05:20:09.121Z,21.10
2023-02-19T05:20:41.576Z,18.70
2023-02-19T05:21:14.058Z,15.80
2023-02-19T05:21:46.487Z,14.10
2023-02-19T05:22:19.028Z,13.60
2023-02-19T05:22:51.473Z,15.40
2023-02-19T05:23:23.973Z,17.10
2023-02-19T05:23:56.422Z,19.50
2023-02-19T05:24:28.884Z,18.70
2023-02-19T05:25:01.347Z,14.40
2023-02-19T05:25:33.799Z,17.40
2023-02-19T05:26:06.255Z,16.50
2023-02-19T05:26:38.732Z,16.80
2023-02-19T05:27:11.174Z,15.40
2023-02-19T05:27:43.626Z,14.20
2023-02-19T05:28:16.112Z,13.40
2023-02-19T05:28:48.586Z,13.30
2023-02-19T05:29:21.053Z,12.60
2023-02-19T05:29:53.529Z,14.80
2023-02-19T05:30:26.047Z,15.00
2023-02-19T05:30:58.474Z,17.30
2023-02-19T05:31:31.046Z,17.80
2023-02-19T05:32:03.424Z,16.10
2023-02-19T05:32:35.879Z,18.20
2023-02-19T05:33:08.333Z,14.90
2023-02-19T05:33:40.827Z,15.10
2023-02-19T05:34:13.315Z,14.80
2023-02-19T05:34:45.777Z,15.40
2023-02-19T05:35:18.214Z,14.70
2023-02-19T05:35:50.671Z,16.80
2023-02-19T05:36:23.139Z,14.60
2023-02-19T05:36:55.605Z,12.90
2023-02-19T05:37:28.065Z,16.60
2023-02-19T05:38:00.546Z,15.20
2023-02-19T05:38:33.032Z,12.40
2023-02-19T05:39:05.490Z,11.80
2023-02-19T05:39:37.914Z,14.20
2023-02-19T05:40:10.356Z,14.90
2023-02-19T05:40:42.878Z,11.90
2023-02-19T05:41:15.349Z,13.40
2023-02-19T05:41:47.812Z,16.70
2023-02-19T05:42:20.269Z,14.70
2023-02-19T05:42:52.705Z,13.30
2023-02-19T05:43:25.165Z,15.40
2023-02-19T05:43:57.664Z,13.90
2023-02-19T05:44:30.159Z,12.40
2023-02-19T05:45:02.597Z,11.90
2023-02-19T05:45:35.024Z,11.70
2023-02-19T05:46:07.511Z,14.40
2023-02-19T05:46:40.021Z,12.90
2023-02-19T05:47:12.423Z,12.70
2023-02-19T05:47:44.878Z,12.20
2023-02-19T05:48:17.343Z,11.30
2023-02-19T05:48:49.812Z,10.60
2023-02-19T05:49:22.240Z,11.80
2023-02-19T05:49:54.725Z,12.90
2023-02-19T05:50:27.183Z,13.90
2023-02-19T05:50:59.666Z,13.30
2023-02-19T05:51:32.128Z,12.20
2023-02-19T05:52:04.590Z,12.10
2023-02-19T05:52:37.053Z,13.90
2023-02-19T05:53:09.509Z,14.80
2023-02-19T05:53:41.951Z,12.80
2023-02-19T05:54:14.618Z,13.40
2023-02-19T05:54:47.106Z,11.70
2023-02-19T05:55:19.518Z,10.60
2023-02-19T05:55:51.957Z,12.20
2023-02-19T05:56:24.418Z,16.90
2023-02-19T05:56:56.852Z,15.40
2023-02-19T05:57:29.279Z,11.30
2023-02-19T05:58:01.762Z,10.50
2023-02-19T05:58:34.195Z,13.70
2023-02-19T05:59:06.657Z,14.10
2023-02-19T05:59:39.114Z,10.60
2023-02-19T06:00:11.577Z,12.20
2023-02-19T06:00:44.053Z,16.40
2023-02-19T06:01:16.496Z,15.00
2023-02-19T06:01:48.921Z,13.30
2023-02-19T06:02:21.381Z,14.80
2023-02-19T06:02:53.856Z,14.80
2023-02-19T06:03:26.270Z,14.20
2023-02-19T06:03:58.733Z,15.60
2023-02-19T06:04:31.149Z,15.00
2023-02-19T06:05:03.597Z,11.60
2023-02-19T06:05:36.080Z,11.90
2023-02-19T06:06:08.572Z,16.20
2023-02-19T06:06:41.029Z,16.20
2023-02-19T06:07:13.493Z,14.00
2023-02-19T06:07:45.949Z,12.00
2023-02-19T06:08:18.431Z,12.20
2023-02-19T06:08:50.869Z,13.40
2023-02-19T06:09:23.336Z,17.50
2023-02-19T06:09:55.781Z,17.60
2023-02-19T06:10:28.313Z,15.40
2023-02-19T06:11:00.804Z,16.30
2023-02-19T06:11:33.267Z,14.30
2023-02-19T06:12:05.701Z,13.70
2023-02-19T06:12:38.133Z,14.10
2023-02-19T06:13:10.735Z,14.90
2023-02-19T06:13:43.238Z,16.60
2023-02-19T06:14:15.747Z,16.50
2023-02-19T06:14:48.218Z,15.90
2023-02-19T06:15:20.659Z,13.70
2023-02-19T06:15:53.143Z,13.20
2023-02-19T06:16:25.652Z,12.40
2023-02-19T06:16:58.047Z,15.50
2023-02-19T06:17:30.550Z,17.30
2023-02-19T06:18:03.043Z,14.20
2023-02-19T06:18:35.556Z,17.50
2023-02-19T06:19:08.098Z,19.30
2023-02-19T06:19:40.522Z,17.30
2023-02-19T06:20:12.981Z,15.40
2023-02-19T06:20:45.492Z,13.20
2023-02-19T06:21:18.009Z,13.40
2023-02-19T06:21:50.630Z,16.20
2023-02-19T06:22:23.014Z,16.00
2023-02-19T06:22:55.471Z,17.00
2023-02-19T06:23:27.943Z,17.40
2023-02-19T06:24:00.441Z,16.20
2023-02-19T06:24:32.949Z,17.10
2023-02-19T06:25:05.518Z,17.40
2023-02-19T06:25:38.083Z,17.70
2023-02-19T06:26:10.587Z,17.20
2023-02-19T06:26:43.058Z,17.00
2023-02-19T06:27:15.560Z,18.80
2023-02-19T06:27:48.108Z,17.80
2023-02-19T06:28:20.665Z,14.60
2023-02-19T06:28:53.184Z,16.60
2023-02-19T06:29:25.682Z,17.40
2023-02-19T06:29:58.186Z,18.60
2023-02-19T06:30:30.717Z,20.90
2023-02-19T06:31:03.257Z,22.10
2023-02-19T06:31:35.865Z,17.10
2023-02-19T06:32:08.385Z,14.70
2023-02-19T06:32:40.811Z,18.90
2023-02-19T06:33:13.250Z,17.70
2023-02-19T06:33:45.737Z,16.20
2023-02-19T06:34:18.353Z,17.00
2023-02-19T06:34:50.864Z,14.40
2023-02-19T06:35:23.372Z,13.90
2023-02-19T06:35:55.990Z,15.00
2023-02-19T06:36:28.477Z,14.10
2023-02-19T06:37:00.986Z,13.80
2023-02-19T06:37:33.475Z,17.20
2023-02-19T06:38:05.966Z,17.70
2023-02-19T06:38:38.426Z,17.50
2023-02-19T06:39:10.941Z,19.10
2023-02-19T06:39:43.468Z,19.50
2023-02-19T06:40:15.949Z,16.70
2023-02-19T06:40:48.416Z,17.10
2023-02-19T06:41:20.945Z,19.30
2023-02-19T06:41:53.363Z,22.30
2023-02-19T06:42:25.836Z,19.00
2023-02-19T06:42:58.350Z,21.00
2023-02-19T06:43:30.813Z,19.60
2023-02-19T06:44:03.310Z,17.40
2023-02-19T06:44:35.833Z,16.00
2023-02-19T06:45:08.320Z,14.30
2023-02-19T06:45:40.830Z,16.00
2023-02-19T06:46:13.366Z,20.70
2023-02-19T06:46:45.795Z,18.40
2023-02-19T06:47:18.282Z,14.00
2023-02-19T06:47:50.777Z,21.50
2023-02-19T06:48:23.265Z,21.50
2023-02-19T06:48:55.732Z,19.30
2023-02-19T06:49:28.250Z,18.70
2023-02-19T06:50:00.763Z,22.30
2023-02-19T06:50:33.268Z,18.20
2023-02-19T06:51:05.787Z,17.50
2023-02-19T06:51:38.260Z,17.30
2023-02-19T06:52:10.735Z,17.50
2023-02-19T06:52:43.205Z,16.00
2023-02-19T06:53:15.663Z,22.40
2023-02-19T06:53:48.147Z,21.50
2023-02-19T06:54:20.634Z,13.90
2023-02-19T06:54:53.094Z,18.50
2023-02-19T06:55:25.571Z,18.10
2023-02-19T06:55:58.063Z,16.70
2023-02-19T06:56:30.576Z,15.60
2023-02-19T06:57:03.050Z,13.70
2023-02-19T06:57:35.640Z,15.80
2023-02-19T06:58:08.127Z,18.90
2023-02-19T06:58:40.574Z,14.50